Time;durP1;ratioP1;P1;durP2;ratioP2;P2;SDS_P1;SDS_P2;PMS_P1;PMS_P2;Temp;Humidity;BMP_temperature;BMP_pressure;BME280_temperature;BME280_humidity;BME280_pressure;Samples;Min_cycle;Max_cycle;Signal;HPM_P1;HPM_P2
2024/01/17 00:01:24;;;;;;;24.27;14.13;;;-6.70;99.90;;;;;;5022400;28;20050;-66
2024/01/17 00:03:51;;;;;;;24.67;13.90;;;-6.70;99.90;;;;;;5014100;28;20473;-66
2024/01/17 00:06:18;;;;;;;26.00;13.43;;;-6.70;99.90;;;;;;5017872;28;20046;-66
2024/01/17 00:08:50;;;;;;;25.10;12.07;;;-6.60;99.90;;;;;;5025515;28;20033;-66
2024/01/17 00:11:21;;;;;;;30.30;13.47;;;-6.60;99.90;;;;;;5039553;28;20054;-65
2024/01/17 00:13:54;;;;;;;25.10;12.87;;;-6.60;99.90;;;;;;5025091;28;20062;-65
2024/01/17 00:16:22;;;;;;;22.08;12.02;;;-6.50;99.90;;;;;;5021907;28;20041;-65
2024/01/17 00:18:49;;;;;;;22.50;12.15;;;-6.50;99.90;;;;;;5041483;28;20128;-65
2024/01/17 00:21:17;;;;;;;24.77;11.93;;;-6.50;99.90;;;;;;5020320;28;20049;-65
2024/01/17 00:23:49;;;;;;;25.20;12.95;;;-6.50;99.90;;;;;;5032210;28;20034;-65
2024/01/17 00:26:21;;;;;;;25.17;13.10;;;-6.50;99.90;;;;;;5018761;28;20125;-65
2024/01/17 00:28:54;;;;;;;26.00;14.00;;;-6.50;99.90;;;;;;5012820;28;20057;-65
2024/01/17 00:31:26;;;;;;;24.90;13.02;;;-6.50;99.90;;;;;;5028202;28;20120;-65
2024/01/17 00:33:52;;;;;;;24.17;13.60;;;-6.50;99.90;;;;;;5017972;28;20030;-65
2024/01/17 00:36:24;;;;;;;27.83;13.97;;;-6.50;99.90;;;;;;5027995;28;20069;-65
2024/01/17 00:38:57;;;;;;;27.97;12.20;;;-6.50;99.90;;;;;;5025202;28;20137;-65
2024/01/17 00:41:29;;;;;;;33.42;12.43;;;-6.40;99.90;;;;;;5023247;28;20066;-65
2024/01/17 00:44:04;;;;;;;30.03;13.77;;;-6.40;99.90;;;;;;5013708;28;20152;-65
2024/01/17 00:46:31;;;;;;;29.43;14.50;;;-6.40;99.90;;;;;;5036461;28;20481;-65
2024/01/17 00:48:58;;;;;;;33.00;15.10;;;-6.30;99.90;;;;;;5024824;28;20057;-66
2024/01/17 00:51:25;;;;;;;28.23;15.57;;;-6.30;99.90;;;;;;5037317;28;20068;-65
2024/01/17 00:53:53;;;;;;;29.70;13.27;;;-6.30;99.90;;;;;;5015674;28;20038;-65
2024/01/17 00:56:26;;;;;;;31.58;13.93;;;-6.30;99.90;;;;;;5022925;28;20041;-65
2024/01/17 00:58:54;;;;;;;26.23;13.38;;;-6.20;99.90;;;;;;5014384;28;20050;-65
2024/01/17 01:01:26;;;;;;;23.17;13.45;;;-6.20;99.90;;;;;;5022341;28;20582;-65
2024/01/17 01:03:58;;;;;;;29.93;13.93;;;-6.20;99.90;;;;;;5036180;28;20419;-65
2024/01/17 01:06:30;;;;;;;28.85;14.48;;;-6.10;99.90;;;;;;5036118;28;20049;-65
2024/01/17 01:09:02;;;;;;;25.50;14.17;;;-6.10;99.90;;;;;;5038276;28;20582;-65
2024/01/17 01:11:34;;;;;;;25.80;14.05;;;-6.00;99.90;;;;;;5023165;28;20126;-65
2024/01/17 01:14:06;;;;;;;29.10;13.35;;;-6.00;99.90;;;;;;5017674;28;20042;-65
2024/01/17 01:16:38;;;;;;;23.75;12.45;;;-6.00;99.90;;;;;;5016042;28;20062;-65
2024/01/17 01:19:06;;;;;;;32.35;14.35;;;-5.90;99.90;;;;;;5024480;28;20514;-65
2024/01/17 01:21:38;;;;;;;20.60;11.60;;;-5.90;99.90;;;;;;5016799;28;20061;-65
2024/01/17 01:24:09;;;;;;;26.88;13.98;;;-5.90;99.90;;;;;;5025751;28;20137;-65
2024/01/17 01:26:41;;;;;;;24.25;13.85;;;-5.80;99.90;;;;;;5015174;28;20061;-65
2024/01/17 01:29:14;;;;;;;24.45;13.82;;;-5.80;99.90;;;;;;5019166;28;20045;-65
2024/01/17 01:31:46;;;;;;;23.13;12.90;;;-5.80;99.90;;;;;;5021628;28;20095;-65
2024/01/17 01:34:19;;;;;;;25.77;13.30;;;-5.80;99.90;;;;;;5024768;28;20041;-65
2024/01/17 01:36:51;;;;;;;27.13;13.05;;;-5.80;99.90;;;;;;5019630;28;20524;-65
2024/01/17 01:39:18;;;;;;;26.77;15.00;;;-5.80;99.90;;;;;;5018297;28;20046;-65
2024/01/17 01:41:49;;;;;;;26.65;13.75;;;-5.80;99.90;;;;;;5029340;28;20046;-65
2024/01/17 01:44:21;;;;;;;26.63;13.30;;;-5.70;99.90;;;;;;5014854;28;20048;-65
2024/01/17 01:46:54;;;;;;;24.10;14.68;;;-5.70;99.90;;;;;;5018045;28;20092;-65
2024/01/17 01:49:26;;;;;;;28.45;14.60;;;-5.60;99.90;;;;;;5012339;28;20119;-65
2024/01/17 01:51:58;;;;;;;26.23;14.73;;;-5.60;99.90;;;;;;5021751;28;20041;-65
2024/01/17 01:54:30;;;;;;;22.13;11.73;;;-5.50;99.90;;;;;;5017689;28;20046;-65
2024/01/17 01:57:03;;;;;;;28.83;14.23;;;-5.50;99.90;;;;;;5028881;28;20048;-65
2024/01/17 01:59:35;;;;;;;21.08;12.90;;;-5.40;99.90;;;;;;5020530;28;20562;-65
2024/01/17 02:02:04;;;;;;;28.35;14.77;;;-5.40;99.90;;;;;;5019813;28;20738;-65
2024/01/17 02:04:36;;;;;;;20.05;13.00;;;-5.40;99.90;;;;;;5034248;28;20045;-65
2024/01/17 02:07:11;;;;;;;25.02;13.85;;;-5.30;99.90;;;;;;5021920;28;20046;-65
2024/01/17 02:09:38;;;;;;;22.40;13.05;;;-5.30;99.90;;;;;;5014594;28;20137;-65
2024/01/17 02:12:11;;;;;;;32.15;14.93;;;-5.20;99.90;;;;;;5009766;28;20042;-65
2024/01/17 02:14:43;;;;;;;24.60;14.18;;;-5.10;99.90;;;;;;5022092;28;20045;-65
2024/01/17 02:17:15;;;;;;;23.38;13.98;;;-5.10;99.90;;;;;;5015332;28;20046;-65
2024/01/17 02:19:47;;;;;;;25.33;12.85;;;-5.10;99.90;;;;;;5026180;28;20053;-65
2024/01/17 02:22:19;;;;;;;24.83;13.63;;;-5.10;99.90;;;;;;5036883;28;20088;-65
2024/01/17 02:24:46;;;;;;;23.63;13.23;;;-5.00;99.90;;;;;;5021703;28;20124;-65
2024/01/17 02:27:18;;;;;;;26.27;13.55;;;-4.90;99.90;;;;;;5022357;28;20050;-65
2024/01/17 02:29:50;;;;;;;26.77;14.43;;;-4.90;99.90;;;;;;5021014;28;20111;-65
2024/01/17 02:32:22;;;;;;;22.17;12.98;;;-4.90;99.90;;;;;;5022969;28;20045;-65
2024/01/17 02:34:54;;;;;;;20.85;11.30;;;-4.90;99.90;;;;;;5035127;28;20053;-65
2024/01/17 02:37:26;;;;;;;24.20;12.80;;;-4.90;99.90;;;;;;5009527;28;20038;-64
2024/01/17 02:39:58;;;;;;;22.10;14.00;;;-4.90;99.90;;;;;;5016364;28;20041;-65
2024/01/17 02:42:30;;;;;;;21.80;12.25;;;-4.80;99.90;;;;;;5028241;28;20413;-65
2024/01/17 02:45:01;;;;;;;21.30;12.18;;;-4.70;99.90;;;;;;5019895;28;20065;-65
2024/01/17 02:47:33;;;;;;;25.45;13.20;;;-4.60;99.90;;;;;;5036837;28;20145;-64
2024/01/17 02:50:06;;;;;;;22.15;12.57;;;-4.50;99.90;;;;;;5031776;28;20133;-65
2024/01/17 02:52:38;;;;;;;25.23;13.65;;;-4.40;99.90;;;;;;5041523;28;20046;-65
2024/01/17 02:55:11;;;;;;;24.55;13.73;;;-4.40;99.90;;;;;;5036368;28;20042;-65
2024/01/17 02:57:43;;;;;;;18.58;10.65;;;-4.30;99.90;;;;;;5039407;28;20049;-65
2024/01/17 03:00:11;;;;;;;24.00;13.38;;;-4.20;99.90;;;;;;5024069;28;20073;-65
2024/01/17 03:02:44;;;;;;;27.45;14.85;;;-4.20;99.90;;;;;;5037721;28;20053;-65
2024/01/17 03:05:16;;;;;;;22.40;13.30;;;-4.30;99.90;;;;;;5015748;28;20084;-65
2024/01/17 03:07:48;;;;;;;23.75;14.00;;;-4.20;99.90;;;;;;5015986;28;20066;-65
2024/01/17 03:10:20;;;;;;;22.83;14.25;;;-4.20;99.90;;;;;;5018909;28;20123;-65
2024/01/17 03:12:51;;;;;;;30.38;15.55;;;-4.20;99.90;;;;;;5028596;28;20033;-65
2024/01/17 03:15:23;;;;;;;25.58;13.68;;;-4.10;99.90;;;;;;5021953;28;20049;-65
2024/01/17 03:17:50;;;;;;;27.25;14.55;;;-4.10;99.90;;;;;;5021649;28;20049;-65
2024/01/17 03:20:22;;;;;;;26.42;13.70;;;-4.20;99.90;;;;;;5039871;28;20053;-65
2024/01/17 03:22:52;;;;;;;27.80;14.02;;;-4.10;99.90;;;;;;5021528;28;20490;-65
2024/01/17 03:25:24;;;;;;;25.70;13.73;;;-4.20;99.90;;;;;;5023121;28;20048;-65
2024/01/17 03:27:56;;;;;;;24.27;13.98;;;-4.20;99.90;;;;;;5021105;28;20038;-65
2024/01/17 03:30:28;;;;;;;27.20;14.60;;;-4.20;99.90;;;;;;5015389;28;20065;-65
2024/01/17 03:33:00;;;;;;;22.95;12.98;;;-4.20;99.90;;;;;;5017708;28;20053;-65
2024/01/17 03:35:31;;;;;;;27.77;14.27;;;-4.20;99.90;;;;;;5017215;28;20070;-65
2024/01/17 03:38:03;;;;;;;23.45;14.27;;;-4.10;99.90;;;;;;5030358;28;20049;-65
2024/01/17 03:40:35;;;;;;;27.55;14.43;;;-4.10;99.90;;;;;;5022253;28;20125;-65
2024/01/17 03:43:07;;;;;;;24.92;14.15;;;-4.00;99.90;;;;;;5038296;28;20046;-65
2024/01/17 03:45:39;;;;;;;25.10;15.15;;;-4.00;99.90;;;;;;5037232;28;20489;-65
2024/01/17 03:48:11;;;;;;;25.98;15.20;;;-3.90;99.90;;;;;;5029880;28;20056;-65
2024/01/17 03:50:43;;;;;;;24.90;15.45;;;-3.80;99.90;;;;;;5027847;28;20054;-65
2024/01/17 03:53:15;;;;;;;27.92;14.07;;;-3.70;99.90;;;;;;5022867;28;20125;-65
2024/01/17 03:55:42;;;;;;;24.30;15.35;;;-3.70;99.90;;;;;;5018936;28;20038;-65
2024/01/17 03:58:13;;;;;;;27.10;15.27;;;-3.60;99.90;;;;;;5014395;28;20164;-65
2024/01/17 04:00:40;;;;;;;27.40;15.15;;;-3.50;99.90;;;;;;5021362;28;20136;-65
2024/01/17 04:03:12;;;;;;;28.55;14.60;;;-3.40;99.90;;;;;;5016973;28;20077;-65
2024/01/17 04:05:41;;;;;;;26.90;14.40;;;-3.40;99.90;;;;;;5018542;28;20046;-65
2024/01/17 04:08:13;;;;;;;;;;;-3.40;99.90;;;;;;5029783;28;20610;-65
2024/01/17 04:10:40;;;;;;;23.88;13.70;;;-3.40;99.90;;;;;;5023181;28;19945;-66
2024/01/17 04:13:12;;;;;;;28.05;15.98;;;-3.30;99.90;;;;;;5040661;28;20049;-65
2024/01/17 04:15:43;;;;;;;24.05;14.93;;;-3.40;99.90;;;;;;5035517;28;20148;-65
2024/01/17 04:18:16;;;;;;;26.50;15.20;;;-3.30;99.90;;;;;;5026192;28;20133;-65
2024/01/17 04:20:48;;;;;;;25.17;16.20;;;-3.30;99.90;;;;;;5017173;28;20033;-65
2024/01/17 04:23:15;;;;;;;28.40;16.98;;;-3.20;99.90;;;;;;5031225;28;20041;-65
2024/01/17 04:25:47;;;;;;;32.15;18.90;;;-3.10;99.90;;;;;;5035270;28;20218;-65
2024/01/17 04:28:19;;;;;;;33.03;19.02;;;-3.10;99.90;;;;;;5015867;28;20049;-65
2024/01/17 04:30:50;;;;;;;34.08;17.73;;;-3.00;99.90;;;;;;5023935;28;20048;-65
2024/01/17 04:33:22;;;;;;;29.38;16.90;;;-3.00;99.90;;;;;;5021013;28;20578;-65
2024/01/17 04:35:54;;;;;;;32.72;17.73;;;-2.90;99.90;;;;;;5029190;28;20038;-65
2024/01/17 04:38:26;;;;;;;27.13;16.15;;;-2.80;99.90;;;;;;5022924;28;20096;-65
2024/01/17 04:40:58;;;;;;;31.63;18.35;;;-2.80;99.90;;;;;;5022543;28;20538;-65
2024/01/17 04:43:30;;;;;;;30.77;16.85;;;-2.70;99.90;;;;;;5017631;28;20112;-65
2024/01/17 04:46:02;;;;;;;30.60;16.42;;;-2.60;99.90;;;;;;5017615;28;20120;-65
2024/01/17 04:48:35;;;;;;;30.98;17.63;;;-2.60;99.90;;;;;;5020959;28;20073;-65
2024/01/17 04:51:09;;;;;;;28.52;17.70;;;-2.60;99.90;;;;;;5012818;28;20041;-65
2024/01/17 04:53:44;;;;;;;31.63;17.77;;;-2.50;99.90;;;;;;5015664;28;20045;-66
2024/01/17 04:56:16;;;;;;;28.98;17.83;;;-2.50;99.90;;;;;;5019841;28;20030;-65
2024/01/17 04:58:48;;;;;;;41.58;19.98;;;-2.40;99.90;;;;;;5033823;28;20137;-66
2024/01/17 05:01:20;;;;;;;39.08;21.27;;;-2.40;99.90;;;;;;5012319;28;20130;-66
2024/01/17 05:03:52;;;;;;;41.42;21.77;;;-2.30;99.90;;;;;;5025873;28;20139;-66
2024/01/17 05:06:24;;;;;;;37.88;20.83;;;-2.30;99.90;;;;;;5028349;28;20053;-66
2024/01/17 05:08:57;;;;;;;39.33;21.00;;;-2.30;99.90;;;;;;5024961;28;20061;-65
2024/01/17 05:11:24;;;;;;;45.47;25.40;;;-2.20;99.90;;;;;;5024276;28;20033;-66
2024/01/17 05:13:56;;;;;;;38.20;19.93;;;-2.20;99.90;;;;;;5021354;28;20053;-66
2024/01/17 05:16:28;;;;;;;48.38;25.77;;;-2.10;99.90;;;;;;5015664;28;20061;-65
2024/01/17 05:18:59;;;;;;;47.53;24.05;;;-2.00;99.90;;;;;;5021731;28;20056;-65
2024/01/17 05:21:32;;;;;;;39.25;21.38;;;-2.00;99.90;;;;;;5015723;28;20587;-65
2024/01/17 05:24:04;;;;;;;33.38;17.65;;;-1.90;99.90;;;;;;5018681;28;20124;-65
2024/01/17 05:26:36;;;;;;;33.97;17.55;;;-1.90;99.90;;;;;;5023686;28;20450;-65
2024/01/17 05:29:02;;;;;;;30.98;16.42;;;-1.80;99.90;;;;;;5024374;28;20058;-64
2024/01/17 05:31:35;;;;;;;33.22;16.83;;;-1.80;99.90;;;;;;5030005;28;20051;-65
2024/01/17 05:34:07;;;;;;;31.42;20.42;;;-1.70;99.90;;;;;;5028768;28;20418;-66
2024/01/17 05:36:39;;;;;;;34.33;20.02;;;-1.70;99.90;;;;;;5021259;28;21088;-66
2024/01/17 05:39:12;;;;;;;29.77;18.80;;;-1.70;99.90;;;;;;5019299;28;20049;-65
2024/01/17 05:41:44;;;;;;;31.80;18.42;;;-1.70;99.90;;;;;;5021590;28;20038;-66
2024/01/17 05:44:11;;;;;;;31.55;17.85;;;-1.70;99.90;;;;;;5023550;28;20041;-68
2024/01/17 05:46:42;;;;;;;34.30;19.20;;;-1.70;99.90;;;;;;5020499;28;20033;-66
2024/01/17 05:49:14;;;;;;;30.88;16.35;;;-1.70;99.90;;;;;;5022875;28;20165;-68
2024/01/17 05:51:41;;;;;;;33.33;19.23;;;-1.60;99.90;;;;;;5017516;28;20771;-66
2024/01/17 05:54:13;;;;;;;33.60;17.52;;;-1.50;99.90;;;;;;5037787;28;20052;-66
2024/01/17 05:56:45;;;;;;;32.42;17.67;;;-1.50;99.90;;;;;;5021643;28;20046;-66
2024/01/17 05:59:17;;;;;;;31.75;17.98;;;-1.50;99.90;;;;;;5022487;28;20104;-66
2024/01/17 06:01:49;;;;;;;32.63;17.77;;;-1.40;99.90;;;;;;5018392;28;20052;-66
2024/01/17 06:04:16;;;;;;;32.75;18.08;;;-1.40;99.90;;;;;;5016241;28;20040;-65
2024/01/17 06:06:48;;;;;;;29.90;16.90;;;-1.40;99.90;;;;;;5017429;28;20061;-66
2024/01/17 06:09:20;;;;;;;37.05;17.77;;;-1.40;99.90;;;;;;5021890;28;20073;-65
2024/01/17 06:11:53;;;;;;;42.80;18.35;;;-1.30;99.90;;;;;;5024349;28;20133;-66
2024/01/17 06:14:24;;;;;;;40.00;18.08;;;-1.20;99.90;;;;;;5025161;28;20046;-66
2024/01/17 06:16:56;;;;;;;38.78;20.23;;;-1.20;99.90;;;;;;5018293;28;20045;-66
2024/01/17 06:19:28;;;;;;;33.75;18.48;;;-1.20;99.90;;;;;;5025051;28;20387;-65
2024/01/17 06:22:01;;;;;;;30.20;16.58;;;-1.10;99.90;;;;;;5022651;28;20664;-66
2024/01/17 06:24:34;;;;;;;22.45;13.43;;;-1.10;99.90;;;;;;5033239;28;20424;-66
2024/01/17 06:27:05;;;;;;;28.20;15.93;;;-1.00;99.90;;;;;;5021768;28;20041;-67
2024/01/17 06:29:44;;;;;;;33.13;18.25;;;-1.00;99.90;;;;;;5023300;28;20055;-67
2024/01/17 06:32:16;;;;;;;30.92;17.13;;;-0.90;99.90;;;;;;5018931;28;20064;-67
2024/01/17 06:34:44;;;;;;;27.15;16.77;;;-0.90;99.90;;;;;;5017553;28;20037;-67
2024/01/17 06:37:16;;;;;;;26.38;15.05;;;-0.90;99.90;;;;;;5022863;28;20042;-68
2024/01/17 06:39:47;;;;;;;25.58;15.57;;;-0.80;99.90;;;;;;5019126;28;20045;-67
2024/01/17 06:42:19;;;;;;;27.23;16.83;;;-0.80;99.90;;;;;;5025031;28;20847;-67
2024/01/17 06:44:46;;;;;;;24.65;15.27;;;-0.80;99.90;;;;;;5026507;28;20047;-67
2024/01/17 06:47:18;;;;;;;33.40;20.48;;;-0.70;99.90;;;;;;5021726;28;20046;-69
2024/01/17 06:49:50;;;;;;;52.08;29.25;;;-0.60;99.90;;;;;;5028072;28;20045;-67
2024/01/17 06:52:22;;;;;;;39.45;20.90;;;-0.50;99.90;;;;;;5023953;28;20065;-68
2024/01/17 06:54:54;;;;;;;35.47;20.00;;;-0.50;99.90;;;;;;5029178;28;20628;-68
2024/01/17 06:57:26;;;;;;;202.00;90.40;;;-0.50;99.90;;;;;;5015491;28;20042;-68
2024/01/17 06:59:58;;;;;;;65.20;37.40;;;-0.50;99.90;;;;;;5023672;28;20680;-68
2024/01/17 07:02:30;;;;;;;63.15;34.90;;;-0.40;99.90;;;;;;5036129;28;20049;-68
2024/01/17 07:04:56;;;;;;;53.13;31.40;;;-0.40;99.90;;;;;;5020555;28;20498;-68
2024/01/17 07:07:28;;;;;;;33.22;20.98;;;-0.30;99.90;;;;;;5032442;28;20045;-68
2024/01/17 07:10:02;;;;;;;33.25;18.48;;;-0.30;99.90;;;;;;5020469;28;20052;-67
2024/01/17 07:12:33;;;;;;;28.92;16.27;;;-0.20;99.90;;;;;;5021604;28;20034;-68
2024/01/17 07:15:00;;;;;;;31.48;18.65;;;-0.10;99.90;;;;;;5022978;28;21280;-68
2024/01/17 07:17:27;;;;;;;27.38;16.20;;;-0.10;99.90;;;;;;5023747;28;20030;-68
2024/01/17 07:19:54;;;;;;;27.45;16.23;;;0.00;99.90;;;;;;5021815;28;20034;-68
2024/01/17 07:22:26;;;;;;;32.55;18.73;;;0.00;99.90;;;;;;5016977;28;20050;-68
2024/01/17 07:24:58;;;;;;;51.88;25.80;;;0.00;99.90;;;;;;5010780;28;20128;-68
2024/01/17 07:27:25;;;;;;;73.60;35.00;;;0.00;99.90;;;;;;5033372;28;20513;-68
2024/01/17 07:29:57;;;;;;;70.80;31.85;;;0.00;99.90;;;;;;5009459;28;20050;-67
2024/01/17 07:32:23;;;;;;;80.85;36.55;;;0.00;99.90;;;;;;5015808;28;20140;-67
2024/01/17 07:34:55;;;;;;;80.05;36.42;;;0.00;99.90;;;;;;5023317;28;20116;-67
2024/01/17 07:37:22;;;;;;;77.68;38.85;;;0.00;99.90;;;;;;5028631;28;20558;-67
2024/01/17 07:39:54;;;;;;;84.97;43.13;;;0.10;99.90;;;;;;5038182;28;20121;-67
2024/01/17 07:42:26;;;;;;;69.75;35.35;;;0.10;99.90;;;;;;5021827;28;20060;-67
2024/01/17 07:44:58;;;;;;;47.08;23.08;;;0.10;99.90;;;;;;5021072;28;20064;-67
2024/01/17 07:47:25;;;;;;;37.78;20.27;;;0.10;99.90;;;;;;5026317;28;20077;-67
2024/01/17 07:49:52;;;;;;;29.25;15.60;;;0.10;99.90;;;;;;5017340;28;20117;-67
2024/01/17 07:52:24;;;;;;;24.92;13.55;;;0.10;99.90;;;;;;5015755;28;20038;-67
2024/01/17 07:54:56;;;;;;;19.48;11.93;;;0.10;99.90;;;;;;5006388;28;20128;-66
2024/01/17 07:57:27;;;;;;;18.30;10.25;;;0.20;99.90;;;;;;5000206;28;20104;-68
2024/01/17 07:59:59;;;;;;;17.83;10.48;;;0.20;99.90;;;;;;5022957;28;20046;-67
2024/01/17 08:02:39;;;;;;;33.80;17.58;;;0.30;99.90;;;;;;5017350;28;20108;-67
2024/01/17 08:05:07;;;;;;;115.80;52.75;;;0.30;99.90;;;;;;5019261;28;20045;-67
2024/01/17 08:07:39;;;;;;;101.05;45.78;;;0.30;99.90;;;;;;5022942;28;20040;-67
2024/01/17 08:10:11;;;;;;;72.28;34.17;;;0.30;99.90;;;;;;5025949;28;20044;-67
2024/01/17 08:12:44;;;;;;;39.22;19.98;;;0.30;99.90;;;;;;5023344;28;20034;-67
2024/01/17 08:15:16;;;;;;;19.50;10.55;;;0.40;99.90;;;;;;5019490;28;20467;-68
2024/01/17 08:17:50;;;;;;;14.50;8.88;;;0.40;99.90;;;;;;5037842;28;20116;-68
2024/01/17 08:20:17;;;;;;;21.17;10.63;;;0.60;99.90;;;;;;5025743;28;20044;-68
2024/01/17 08:22:49;;;;;;;16.42;9.75;;;0.60;99.90;;;;;;5034667;28;20048;-68
2024/01/17 08:25:21;;;;;;;16.48;11.25;;;0.70;99.90;;;;;;5022921;28;20050;-68
2024/01/17 08:27:54;;;;;;;18.42;11.00;;;0.70;99.90;;;;;;5024879;28;20041;-68
2024/01/17 08:30:21;;;;;;;17.52;10.75;;;0.80;99.90;;;;;;5039199;28;20144;-69
2024/01/17 08:32:54;;;;;;;17.67;10.45;;;0.80;99.90;;;;;;5021762;28;20129;-69
2024/01/17 08:35:26;;;;;;;16.70;9.82;;;0.80;99.90;;;;;;5021433;28;20120;-69
2024/01/17 08:37:58;;;;;;;15.60;9.80;;;0.80;99.90;;;;;;5022716;28;20130;-69
2024/01/17 08:40:33;;;;;;;17.00;10.07;;;0.80;99.90;;;;;;5017419;28;20057;-68
2024/01/17 08:43:00;;;;;;;18.92;9.70;;;0.90;99.90;;;;;;5020289;28;20727;-68
2024/01/17 08:45:32;;;;;;;17.08;10.60;;;0.80;99.90;;;;;;5015119;28;20137;-68
2024/01/17 08:48:05;;;;;;;17.42;10.23;;;0.80;99.90;;;;;;5011028;28;20112;-68
2024/01/17 08:50:37;;;;;;;15.77;10.20;;;0.80;99.90;;;;;;5033028;28;20061;-68
2024/01/17 08:53:09;;;;;;;16.63;9.25;;;0.80;99.90;;;;;;5017441;28;20047;-68
2024/01/17 08:55:35;;;;;;;15.45;9.27;;;0.80;99.90;;;;;;5021657;28;20133;-68
2024/01/17 08:58:03;;;;;;;14.65;8.77;;;0.80;99.90;;;;;;5018015;28;20064;-68
2024/01/17 09:00:34;;;;;;;14.13;9.32;;;0.80;99.90;;;;;;5019599;28;20072;-68
2024/01/17 09:03:08;;;;;;;26.98;15.63;;;0.80;99.90;;;;;;5023268;28;20137;-68
2024/01/17 09:05:40;;;;;;;31.42;17.27;;;0.80;99.90;;;;;;5023765;28;20068;-68
2024/01/17 09:08:14;;;;;;;31.42;18.15;;;0.70;99.90;;;;;;5017087;28;20041;-68
2024/01/17 09:10:46;;;;;;;29.60;18.48;;;0.70;99.90;;;;;;5018460;28;20042;-68
2024/01/17 09:13:18;;;;;;;30.10;18.02;;;0.70;99.90;;;;;;5012519;28;20399;-68
2024/01/17 09:15:50;;;;;;;28.77;17.92;;;0.70;99.90;;;;;;5022991;28;20866;-68
2024/01/17 09:18:21;;;;;;;23.35;14.85;;;0.70;99.90;;;;;;5027840;28;20045;-68
2024/01/17 09:20:48;;;;;;;29.27;17.63;;;0.70;99.90;;;;;;5022193;28;20045;-68
2024/01/17 09:23:20;;;;;;;27.65;17.40;;;0.70;99.90;;;;;;5020105;28;20041;-68
2024/01/17 09:25:52;;;;;;;28.83;14.88;;;0.80;99.90;;;;;;5021830;28;20513;-68
2024/01/17 09:28:24;;;;;;;20.58;13.57;;;0.80;99.90;;;;;;5020939;28;20517;-69
2024/01/17 09:30:55;;;;;;;24.17;14.13;;;0.70;99.90;;;;;;5018628;28;20068;-68
2024/01/17 09:33:22;;;;;;;22.20;14.30;;;0.70;99.90;;;;;;5017498;28;20031;-68
2024/01/17 09:35:55;;;;;;;16.77;11.15;;;0.80;99.90;;;;;;5021393;28;20566;-68
2024/01/17 09:38:27;;;;;;;15.32;9.18;;;0.70;99.90;;;;;;5012529;28;20041;-68
2024/01/17 09:40:55;;;;;;;13.55;8.65;;;0.80;99.90;;;;;;5012797;28;20128;-68
2024/01/17 09:43:23;;;;;;;12.45;7.70;;;0.80;99.90;;;;;;5015177;28;20133;-68
2024/01/17 09:45:50;;;;;;;11.65;7.63;;;1.00;99.90;;;;;;5023448;28;20049;-68
2024/01/17 09:48:25;;;;;;;14.25;9.20;;;1.10;99.90;;;;;;5023991;28;20449;-68
2024/01/17 09:50:57;;;;;;;14.10;8.73;;;1.10;99.90;;;;;;5023154;28;20056;-68
2024/01/17 09:53:30;;;;;;;12.23;8.60;;;1.20;99.90;;;;;;5020417;28;20052;-68
2024/01/17 09:56:00;;;;;;;14.57;10.07;;;1.20;99.90;;;;;;5021384;28;20064;-68
2024/01/17 09:58:33;;;;;;;13.57;8.50;;;1.20;99.90;;;;;;5016755;28;20395;-68
2024/01/17 10:01:04;;;;;;;13.30;7.93;;;1.20;99.90;;;;;;5017577;28;20045;-68
2024/01/17 10:03:41;;;;;;;14.60;9.80;;;1.20;99.90;;;;;;5012714;28;20042;-68
2024/01/17 10:06:15;;;;;;;14.05;9.20;;;1.20;99.90;;;;;;5011194;28;20553;-68
2024/01/17 10:08:48;;;;;;;14.00;10.07;;;1.20;99.90;;;;;;5011076;28;20504;-69
2024/01/17 10:11:21;;;;;;;13.18;9.10;;;1.20;99.90;;;;;;5018212;28;20138;-68
2024/01/17 10:13:53;;;;;;;11.67;7.93;;;1.20;99.90;;;;;;5017364;28;20403;-68
2024/01/17 10:16:20;;;;;;;11.63;7.88;;;1.20;99.90;;;;;;5024149;28;20045;-68
2024/01/17 10:18:52;;;;;;;14.40;7.82;;;1.20;99.90;;;;;;5005188;28;20048;-68
2024/01/17 10:21:23;;;;;;;13.50;7.35;;;1.30;99.90;;;;;;5023066;28;20056;-68
2024/01/17 10:23:50;;;;;;;11.68;7.68;;;1.30;99.90;;;;;;5017659;28;20044;-67
2024/01/17 10:26:22;;;;;;;13.10;6.78;;;1.40;99.90;;;;;;5021015;28;20569;-68
2024/01/17 10:28:54;;;;;;;9.35;6.32;;;1.50;99.90;;;;;;5019123;28;20052;-68
2024/01/17 10:31:26;;;;;;;9.90;6.25;;;1.60;99.90;;;;;;5020279;28;20083;-67
2024/01/17 10:33:53;;;;;;;9.32;7.15;;;1.70;99.90;;;;;;5019380;28;20057;-67
2024/01/17 10:36:25;;;;;;;10.13;7.30;;;1.80;99.90;;;;;;5023245;28;20053;-67
2024/01/17 10:39:04;;;;;;;12.35;8.30;;;1.80;99.90;;;;;;5017689;28;20406;-67
2024/01/17 10:41:51;;;;;;;11.88;8.43;;;1.80;99.90;;;;;;5024949;28;20140;-67
2024/01/17 10:44:25;;;;;;;11.55;7.57;;;1.90;99.90;;;;;;5021122;28;20046;-67
2024/01/17 10:46:57;;;;;;;12.70;7.13;;;1.90;99.90;;;;;;5019013;28;20054;-68
2024/01/17 10:49:30;;;;;;;11.00;7.82;;;1.80;99.90;;;;;;5018409;28;20037;-67
2024/01/17 10:52:13;;;;;;;10.60;7.13;;;1.90;99.90;;;;;;5020460;28;20128;-67
2024/01/17 10:54:43;;;;;;;9.77;7.53;;;2.00;99.90;;;;;;5020063;28;20073;-67
2024/01/17 10:57:15;;;;;;;11.27;6.72;;;2.00;99.90;;;;;;5010119;28;20568;-68
2024/01/17 10:59:49;;;;;;;9.93;6.28;;;2.10;99.90;;;;;;5008792;28;20447;-67
2024/01/17 11:02:22;;;;;;;7.65;4.78;;;2.10;99.90;;;;;;5016698;28;20052;-67
2024/01/17 11:05:15;;;;;;;9.45;5.07;;;2.20;99.90;;;;;;5029569;28;20042;-67
2024/01/17 11:07:43;;;;;;;6.18;4.53;;;2.30;99.90;;;;;;5021613;28;20037;-67
2024/01/17 11:10:17;;;;;;;6.53;4.45;;;2.30;99.90;;;;;;5006106;28;20074;-67
2024/01/17 11:12:50;;;;;;;5.35;4.05;;;2.40;99.90;;;;;;5026474;28;20411;-67
2024/01/17 11:15:18;;;;;;;8.93;5.15;;;2.40;99.90;;;;;;5024268;28;20041;-67
2024/01/17 11:17:54;;;;;;;7.10;5.10;;;2.40;99.90;;;;;;5019682;28;20038;-67
2024/01/17 11:20:26;;;;;;;6.95;4.72;;;2.40;99.90;;;;;;5018727;28;20052;-66
2024/01/17 11:23:01;;;;;;;7.32;4.63;;;2.40;99.90;;;;;;5021774;28;20379;-67
2024/01/17 11:25:36;;;;;;;5.28;4.43;;;2.50;99.90;;;;;;5012955;28;20653;-66
2024/01/17 11:28:26;;;;;;;8.00;5.13;;;2.50;99.90;;;;;;5013223;28;20057;-66
2024/01/17 11:31:10;;;;;;;6.50;4.80;;;2.50;99.90;;;;;;5019524;28;20049;-67
2024/01/17 11:33:38;;;;;;;7.55;4.13;;;2.50;99.90;;;;;;5015002;28;20072;-66
2024/01/17 11:36:39;;;;;;;5.80;3.90;;;2.50;99.90;;;;;;5022410;28;20103;-67
2024/01/17 11:39:14;;;;;;;6.70;4.28;;;2.50;99.90;;;;;;5021823;28;20046;-66
2024/01/17 11:41:48;;;;;;;5.50;4.18;;;2.50;99.90;;;;;;5021787;28;20099;-67
2024/01/17 11:44:22;;;;;;;6.70;4.50;;;2.60;99.90;;;;;;5022396;28;20060;-67
2024/01/17 11:46:54;;;;;;;7.82;4.95;;;2.60;99.90;;;;;;5024108;28;20056;-66
2024/01/17 11:49:41;;;;;;;6.72;4.18;;;2.70;99.90;;;;;;5018749;28;20606;-67
2024/01/17 11:52:26;;;;;;;6.15;4.45;;;2.70;99.90;;;;;;5015747;28;20137;-66
2024/01/17 11:54:54;;;;;;;6.35;4.45;;;2.70;99.90;;;;;;5023629;28;20043;-67
2024/01/17 11:57:28;;;;;;;5.55;3.95;;;2.70;99.90;;;;;;5028264;28;20125;-67
2024/01/17 12:00:07;;;;;;;6.60;4.60;;;2.70;99.90;;;;;;5025388;28;20038;-66
2024/01/17 12:02:41;;;;;;;11.55;7.50;;;2.70;99.90;;;;;;5022263;28;20049;-66
2024/01/17 12:05:13;;;;;;;7.60;5.75;;;2.70;99.90;;;;;;5025620;28;20453;-66
2024/01/17 12:07:49;;;;;;;6.63;4.93;;;2.70;99.90;;;;;;5023739;28;20046;-66
2024/01/17 12:10:22;;;;;;;12.68;7.05;;;2.70;99.90;;;;;;5018525;28;20044;-66
2024/01/17 12:12:57;;;;;;;9.85;6.65;;;2.70;99.90;;;;;;5005134;28;20592;-66
2024/01/17 12:15:24;;;;;;;9.70;6.22;;;2.70;99.90;;;;;;5024802;28;20048;-66
2024/01/17 12:17:55;;;;;;;14.75;9.27;;;2.60;99.90;;;;;;5019581;28;20483;-66
2024/01/17 12:20:29;;;;;;;19.80;13.68;;;2.60;99.90;;;;;;5019351;28;20038;-66
2024/01/17 12:23:00;;;;;;;18.38;12.75;;;2.50;99.90;;;;;;5025200;28;20057;-66
2024/01/17 12:25:33;;;;;;;25.75;15.88;;;2.50;99.90;;;;;;5021216;28;20056;-66
2024/01/17 12:28:02;;;;;;;22.80;15.68;;;2.50;99.90;;;;;;5027003;28;20045;-66
2024/01/17 12:30:29;;;;;;;20.73;12.73;;;2.50;99.90;;;;;;5022758;28;20505;-66
2024/01/17 12:33:01;;;;;;;18.83;12.02;;;2.50;99.90;;;;;;5040821;28;20140;-66
2024/01/17 12:35:33;;;;;;;16.83;10.70;;;2.40;99.90;;;;;;5027983;28;20051;-65
2024/01/17 12:38:05;;;;;;;14.32;8.90;;;2.40;99.90;;;;;;5024773;28;20041;-65
2024/01/17 12:40:37;;;;;;;11.52;8.65;;;2.30;99.90;;;;;;5025066;28;20040;-65
2024/01/17 12:43:04;;;;;;;8.68;6.63;;;2.30;99.90;;;;;;5024407;28;20038;-65
2024/01/17 12:45:38;;;;;;;8.73;5.65;;;2.20;99.90;;;;;;5018332;28;20399;-65
2024/01/17 12:48:17;;;;;;;8.20;4.90;;;2.20;99.90;;;;;;5015177;28;20100;-65
2024/01/17 12:50:54;;;;;;;5.57;4.53;;;2.20;99.90;;;;;;5021653;28;20041;-65
2024/01/17 12:53:27;;;;;;;5.57;4.50;;;2.20;99.90;;;;;;5024913;28;20041;-65
2024/01/17 12:56:00;;;;;;;6.05;4.82;;;2.20;99.90;;;;;;5020954;28;20128;-65
2024/01/17 12:58:32;;;;;;;8.25;5.07;;;2.20;99.90;;;;;;5023365;28;20037;-65